Time;durP1;ratioP1;P1;durP2;ratioP2;P2;SDS_P1;SDS_P2;PMS_P1;PMS_P2;Temp;Humidity;BMP_temperature;BMP_pressure;BME280_temperature;BME280_humidity;BME280_pressure;Samples;Min_cycle;Max_cycle;Signal;HPM_P1;HPM_P2
2022/01/23 00:00:38;;;;;;;17.03;10.47;;;;;;;;;;5046488;28;20833;-92
2022/01/23 00:03:16;;;;;;;15.70;9.70;;;;;;;;;;5041416;28;20268;-93
2022/01/23 00:05:44;;;;;;;16.77;10.43;;;;;;;;;;5033038;28;20222;-93
2022/01/23 00:08:13;;;;;;;17.40;10.97;;;;;;;;;;5035235;28;20880;-93
2022/01/23 00:10:42;;;;;;;21.13;10.63;;;;;;;;;;5044824;28;20231;-93
2022/01/23 00:13:13;;;;;;;16.27;9.50;;;;;;;;;;5044506;28;20264;-92
2022/01/23 00:18:28;;;;;;;20.27;11.83;;;;;;;;;;5026581;28;20297;-93
2022/01/23 00:20:55;;;;;;;19.33;11.33;;;;;;;;;;5041897;28;20198;-93
2022/01/23 00:23:34;;;;;;;20.23;12.93;;;;;;;;;;5052984;28;20658;-93
2022/01/23 00:31:33;;;;;;;20.67;11.83;;;;;;;;;;5050987;28;20738;-92
2022/01/23 00:34:01;;;;;;;18.73;11.53;;;;;;;;;;5048580;28;20235;-92
2022/01/23 00:36:30;;;;;;;25.03;12.13;;;;;;;;;;5047966;28;20210;-92
2022/01/23 00:38:58;;;;;;;22.93;12.90;;;;;;;;;;5045312;28;20262;-93
2022/01/23 00:41:27;;;;;;;22.90;11.07;;;;;;;;;;5039018;28;20268;-93
2022/01/23 00:44:01;;;;;;;18.50;11.30;;;;;;;;;;5037207;28;20207;-93
2022/01/23 00:46:33;;;;;;;20.77;11.23;;;;;;;;;;5035635;28;20222;-94
2022/01/23 00:51:45;;;;;;;18.40;11.10;;;;;;;;;;5043896;28;20198;-92
2022/01/23 00:54:12;;;;;;;20.83;11.00;;;;;;;;;;5056010;28;20214;-93
2022/01/23 00:56:41;;;;;;;19.70;11.40;;;;;;;;;;5049372;28;20198;-92
2022/01/23 00:59:08;;;;;;;21.43;12.10;;;;;;;;;;5047613;28;20281;-92
2022/01/23 01:01:36;;;;;;;21.13;11.17;;;;;;;;;;5037887;28;20204;-93
2022/01/23 01:04:04;;;;;;;20.77;11.10;;;;;;;;;;5022402;28;20258;-92
2022/01/23 01:06:31;;;;;;;19.47;11.70;;;;;;;;;;5041816;28;20214;-92
2022/01/23 01:09:03;;;;;;;25.07;11.57;;;;;;;;;;5045551;28;20272;-92
2022/01/23 01:11:55;;;;;;;23.77;12.63;;;;;;;;;;5055855;28;20293;-93
2022/01/23 01:14:53;;;;;;;22.53;12.07;;;;;;;;;;5041448;28;20209;-93
2022/01/23 01:17:28;;;;;;;19.50;10.60;;;;;;;;;;5055895;28;20206;-92
2022/01/23 01:31:04;;;;;;;18.33;10.30;;;;;;;;;;5041665;28;20216;-92
2022/01/23 01:33:42;;;;;;;22.37;10.87;;;;;;;;;;5044107;28;20194;-93
2022/01/23 01:36:21;;;;;;;19.73;11.33;;;;;;;;;;5053978;28;20206;-93
2022/01/23 01:38:49;;;;;;;20.73;12.00;;;;;;;;;;5050622;28;20233;-93
2022/01/23 01:41:18;;;;;;;20.77;12.03;;;;;;;;;;5046882;28;20198;-92
2022/01/23 01:43:45;;;;;;;22.30;12.43;;;;;;;;;;5055524;28;20217;-92
2022/01/23 01:46:14;;;;;;;20.87;11.70;;;;;;;;;;5050713;28;20272;-93
2022/01/23 01:48:42;;;;;;;18.67;10.30;;;;;;;;;;5048021;28;20761;-93
2022/01/23 01:51:14;;;;;;;21.60;11.57;;;;;;;;;;5055028;28;20225;-92
2022/01/23 01:53:47;;;;;;;23.87;12.23;;;;;;;;;;5055479;28;20233;-93
2022/01/23 01:56:14;;;;;;;19.00;10.60;;;;;;;;;;5051471;28;20297;-93
2022/01/23 01:59:14;;;;;;;24.87;12.07;;;;;;;;;;5047683;28;20218;-94
2022/01/23 02:10:03;;;;;;;16.67;9.40;;;;;;;;;;5035416;28;20224;-93
2022/01/23 02:18:20;;;;;;;19.20;9.97;;;;;;;;;;5014944;28;20594;-93
2022/01/23 02:23:58;;;;;;;19.83;11.73;;;;;;;;;;5034503;28;20194;-93
2022/01/23 02:51:33;;;;;;;21.33;11.87;;;;;;;;;;5041233;28;20190;-93
2022/01/23 02:54:22;;;;;;;20.23;11.43;;;;;;;;;;5034174;28;20233;-94
2022/01/23 02:56:52;;;;;;;23.73;12.90;;;;;;;;;;5040850;28;20194;-93
2022/01/23 02:59:23;;;;;;;20.57;12.03;;;;;;;;;;5041880;28;20233;-93
2022/01/23 03:02:04;;;;;;;20.23;11.23;;;;;;;;;;5029081;28;20217;-93
2022/01/23 03:04:33;;;;;;;20.50;11.53;;;;;;;;;;5032447;28;20307;-93
2022/01/23 03:07:15;;;;;;;18.43;10.37;;;;;;;;;;5043466;28;20295;-92
2022/01/23 03:10:01;;;;;;;21.30;10.70;;;;;;;;;;5049328;28;20890;-93
2022/01/23 03:15:43;;;;;;;14.93;9.60;;;;;;;;;;5038230;28;20670;-93
2022/01/23 03:26:33;;;;;;;21.37;12.07;;;;;;;;;;5053602;28;20248;-92
2022/01/23 03:29:19;;;;;;;20.20;11.00;;;;;;;;;;5047015;28;20690;-92
2022/01/23 03:32:01;;;;;;;23.53;13.13;;;;;;;;;;5036248;28;20198;-93
2022/01/23 03:34:28;;;;;;;21.57;12.00;;;;;;;;;;5033867;28;20202;-93
2022/01/23 03:36:56;;;;;;;19.97;10.37;;;;;;;;;;5040772;28;20252;-93
2022/01/23 03:39:24;;;;;;;20.20;12.30;;;;;;;;;;5041466;28;20230;-92
2022/01/23 03:41:53;;;;;;;19.30;12.10;;;;;;;;;;5050082;28;20205;-92
2022/01/23 03:44:22;;;;;;;21.50;11.17;;;;;;;;;;5051686;28;20216;-92
2022/01/23 03:47:02;;;;;;;22.90;11.60;;;;;;;;;;5045058;28;20233;-93
2022/01/23 03:49:31;;;;;;;22.90;11.43;;;;;;;;;;5046725;28;20937;-93
2022/01/23 03:52:00;;;;;;;20.30;10.83;;;;;;;;;;5053693;28;20698;-93
2022/01/23 03:54:27;;;;;;;19.17;10.47;;;;;;;;;;5034494;28;20813;-93
2022/01/23 03:56:58;;;;;;;22.00;12.47;;;;;;;;;;5041709;28;20252;-93
2022/01/23 03:59:25;;;;;;;23.57;11.60;;;;;;;;;;5054601;28;20230;-92
2022/01/23 04:01:52;;;;;;;23.63;11.43;;;;;;;;;;5056640;28;20217;-93
2022/01/23 04:04:37;;;;;;;24.60;12.30;;;;;;;;;;5041144;28;20198;-93
2022/01/23 04:07:05;;;;;;;17.53;10.77;;;;;;;;;;5057001;28;20222;-93
2022/01/23 04:09:33;;;;;;;23.00;12.20;;;;;;;;;;5056811;28;20226;-93
2022/01/23 04:12:03;;;;;;;20.87;11.80;;;;;;;;;;5054547;28;20220;-93
2022/01/23 04:14:33;;;;;;;22.83;12.87;;;;;;;;;;5037043;28;20206;-93
2022/01/23 04:17:33;;;;;;;22.90;12.83;;;;;;;;;;5046867;28;20209;-93
2022/01/23 04:20:10;;;;;;;21.07;11.10;;;;;;;;;;5056510;28;20772;-93
2022/01/23 04:33:59;;;;;;;25.47;13.27;;;;;;;;;;5034020;28;20194;-92
2022/01/23 05:01:23;;;;;;;20.00;11.63;;;;;;;;;;5035265;28;20301;-93
2022/01/23 05:06:45;;;;;;;26.73;12.73;;;;;;;;;;5055882;28;20210;-92
2022/01/23 05:09:12;;;;;;;22.33;12.80;;;;;;;;;;5047919;28;20221;-92
2022/01/23 05:11:47;;;;;;;21.33;10.80;;;;;;;;;;5049629;28;20205;-92
2022/01/23 05:14:14;;;;;;;20.03;11.37;;;;;;;;;;5048116;28;20198;-93
2022/01/23 05:16:44;;;;;;;22.60;12.40;;;;;;;;;;5053570;28;20292;-92
2022/01/23 05:19:11;;;;;;;17.53;10.57;;;;;;;;;;5036771;28;20226;-93
2022/01/23 05:24:31;;;;;;;19.33;10.57;;;;;;;;;;5053125;28;20233;-93
2022/01/23 05:27:00;;;;;;;17.73;10.70;;;;;;;;;;5049192;28;20221;-93
2022/01/23 05:29:27;;;;;;;20.07;12.10;;;;;;;;;;5043567;28;20222;-93
2022/01/23 05:31:56;;;;;;;18.77;10.97;;;;;;;;;;5053029;28;20267;-93
2022/01/23 05:34:24;;;;;;;22.47;11.53;;;;;;;;;;5055477;28;20259;-93
2022/01/23 05:36:51;;;;;;;22.80;11.63;;;;;;;;;;5043954;28;20224;-93
2022/01/23 05:39:21;;;;;;;21.27;11.80;;;;;;;;;;5035046;28;20222;-93
2022/01/23 05:41:52;;;;;;;20.27;11.13;;;;;;;;;;5036056;28;20216;-93
2022/01/23 05:44:20;;;;;;;19.80;10.80;;;;;;;;;;5035024;28;20206;-93
2022/01/23 05:46:47;;;;;;;21.60;11.90;;;;;;;;;;5042841;28;20218;-92
2022/01/23 05:49:17;;;;;;;21.00;11.13;;;;;;;;;;5034950;28;20276;-92
2022/01/23 05:51:44;;;;;;;23.07;11.77;;;;;;;;;;5034462;28;20234;-93
2022/01/23 05:54:11;;;;;;;23.23;12.67;;;;;;;;;;5028822;28;20206;-92
2022/01/23 05:56:39;;;;;;;32.50;18.03;;;;;;;;;;5041172;28;20541;-92
2022/01/23 05:59:06;;;;;;;21.80;12.57;;;;;;;;;;5045192;28;20227;-92
2022/01/23 06:01:33;;;;;;;23.27;12.83;;;;;;;;;;5035908;28;20207;-93
2022/01/23 06:04:01;;;;;;;24.13;14.60;;;;;;;;;;5051538;28;20209;-92
2022/01/23 06:06:29;;;;;;;29.07;14.37;;;;;;;;;;5040418;28;20218;-93
2022/01/23 06:08:57;;;;;;;35.53;18.87;;;;;;;;;;5035715;28;20285;-92
2022/01/23 06:11:24;;;;;;;18.40;11.03;;;;;;;;;;5039388;28;20206;-92
2022/01/23 06:13:51;;;;;;;24.10;11.33;;;;;;;;;;5038072;28;20860;-93
2022/01/23 06:16:18;;;;;;;21.33;11.37;;;;;;;;;;5042840;28;20222;-93
2022/01/23 06:18:49;;;;;;;21.00;11.13;;;;;;;;;;5029962;28;20576;-93
2022/01/23 06:21:19;;;;;;;22.50;12.57;;;;;;;;;;5039697;28;20588;-94
2022/01/23 06:23:55;;;;;;;23.10;13.07;;;;;;;;;;5042278;28;20208;-94
2022/01/23 06:26:23;;;;;;;21.40;11.90;;;;;;;;;;5054036;28;20313;-93
2022/01/23 06:28:53;;;;;;;18.50;10.33;;;;;;;;;;5045918;28;20231;-93
2022/01/23 06:31:21;;;;;;;16.60;10.60;;;;;;;;;;5043111;28;20191;-93
2022/01/23 06:33:48;;;;;;;22.70;11.97;;;;;;;;;;5042901;28;20599;-93
2022/01/23 06:36:15;;;;;;;24.00;12.80;;;;;;;;;;5037321;28;20214;-93
2022/01/23 06:38:43;;;;;;;21.20;11.43;;;;;;;;;;5047096;28;20376;-93
2022/01/23 06:41:11;;;;;;;20.33;10.87;;;;;;;;;;5042555;28;20214;-93
2022/01/23 06:43:39;;;;;;;20.70;10.90;;;;;;;;;;5034572;28;20210;-93
2022/01/23 06:46:06;;;;;;;20.33;11.07;;;;;;;;;;5041040;28;20228;-93
2022/01/23 06:48:33;;;;;;;23.60;11.93;;;;;;;;;;5043088;28;20284;-92
2022/01/23 06:51:01;;;;;;;22.23;10.67;;;;;;;;;;5052601;28;20255;-93
2022/01/23 06:53:28;;;;;;;23.17;11.47;;;;;;;;;;5061231;28;20259;-93
2022/01/23 06:55:55;;;;;;;24.03;12.90;;;;;;;;;;5054549;28;20235;-93
2022/01/23 06:58:25;;;;;;;21.67;11.43;;;;;;;;;;5041348;28;20280;-93
2022/01/23 07:00:52;;;;;;;20.93;11.93;;;;;;;;;;5037630;28;20207;-93
2022/01/23 07:03:19;;;;;;;24.40;13.03;;;;;;;;;;5032427;28;20265;-93
2022/01/23 07:05:55;;;;;;;23.07;12.47;;;;;;;;;;5056234;28;20202;-93
2022/01/23 07:08:22;;;;;;;24.37;13.00;;;;;;;;;;5047820;28;20690;-93
2022/01/23 07:10:49;;;;;;;23.53;11.93;;;;;;;;;;5053860;28;20209;-92
2022/01/23 07:13:16;;;;;;;21.83;11.47;;;;;;;;;;5014514;28;20210;-92
2022/01/23 07:15:45;;;;;;;24.03;11.73;;;;;;;;;;5019855;28;20206;-93
2022/01/23 07:18:12;;;;;;;23.87;13.93;;;;;;;;;;5034933;28;20219;-92
2022/01/23 07:20:40;;;;;;;25.90;14.90;;;;;;;;;;5031700;28;20249;-92
2022/01/23 07:23:07;;;;;;;24.53;13.30;;;;;;;;;;5029940;28;20268;-93
2022/01/23 07:25:34;;;;;;;23.17;12.67;;;;;;;;;;5033091;28;20214;-93
2022/01/23 07:28:03;;;;;;;27.47;14.90;;;;;;;;;;5042580;28;20221;-93
2022/01/23 07:30:36;;;;;;;22.23;12.57;;;;;;;;;;5033496;28;20668;-93
2022/01/23 07:33:04;;;;;;;21.30;12.00;;;;;;;;;;5034529;28;20505;-93
2022/01/23 07:35:32;;;;;;;21.10;11.27;;;;;;;;;;5039530;28;20619;-93
2022/01/23 07:38:00;;;;;;;24.67;12.23;;;;;;;;;;5042294;28;20655;-92
2022/01/23 07:40:27;;;;;;;24.57;12.00;;;;;;;;;;5053118;28;20580;-93
2022/01/23 07:42:55;;;;;;;26.90;13.43;;;;;;;;;;5034076;28;20211;-92
2022/01/23 07:45:22;;;;;;;20.67;12.17;;;;;;;;;;5048145;28;20199;-92
2022/01/23 07:47:49;;;;;;;24.17;12.07;;;;;;;;;;5048834;28;20960;-92
2022/01/23 07:50:18;;;;;;;25.37;13.67;;;;;;;;;;5053297;28;20279;-93
2022/01/23 07:52:45;;;;;;;23.73;11.80;;;;;;;;;;5030116;28;20256;-93
2022/01/23 07:55:14;;;;;;;24.47;13.47;;;;;;;;;;5044224;28;20206;-93
2022/01/23 07:57:46;;;;;;;26.67;13.37;;;;;;;;;;5036501;28;20256;-93
2022/01/23 08:00:14;;;;;;;21.27;12.00;;;;;;;;;;5031764;28;20226;-92
2022/01/23 08:02:42;;;;;;;24.73;13.67;;;;;;;;;;5041284;28;20202;-92
2022/01/23 08:05:10;;;;;;;24.50;12.63;;;;;;;;;;5033023;28;20206;-92
2022/01/23 08:07:39;;;;;;;26.77;13.83;;;;;;;;;;5039598;28;20218;-92
2022/01/23 08:10:07;;;;;;;23.83;12.53;;;;;;;;;;5049051;28;20226;-93
2022/01/23 08:12:35;;;;;;;22.97;12.67;;;;;;;;;;5041266;28;20256;-93
2022/01/23 08:15:02;;;;;;;26.77;14.00;;;;;;;;;;5033110;28;20599;-93
2022/01/23 08:17:30;;;;;;;26.87;12.60;;;;;;;;;;5031314;28;20264;-93
2022/01/23 08:19:59;;;;;;;23.63;13.37;;;;;;;;;;5041981;28;20233;-93
2022/01/23 08:22:27;;;;;;;29.07;13.40;;;;;;;;;;5053143;28;20574;-93
2022/01/23 08:24:56;;;;;;;24.23;13.40;;;;;;;;;;5052765;28;20607;-93
2022/01/23 08:27:24;;;;;;;22.27;12.57;;;;;;;;;;5044164;28;20289;-93
2022/01/23 08:29:51;;;;;;;21.10;11.83;;;;;;;;;;5037216;28;20231;-93
2022/01/23 08:32:18;;;;;;;26.73;12.80;;;;;;;;;;5041163;28;20203;-92
2022/01/23 08:34:46;;;;;;;26.40;13.17;;;;;;;;;;5033363;28;20256;-92
2022/01/23 08:37:13;;;;;;;22.87;11.93;;;;;;;;;;5043495;28;20216;-94
2022/01/23 08:39:41;;;;;;;24.97;13.93;;;;;;;;;;5044859;28;20291;-93
2022/01/23 08:42:11;;;;;;;25.17;13.00;;;;;;;;;;5034342;28;20647;-92
2022/01/23 08:44:39;;;;;;;25.03;13.97;;;;;;;;;;5033512;28;20215;-92
2022/01/23 08:47:07;;;;;;;23.43;13.87;;;;;;;;;;5035371;28;20218;-92
2022/01/23 08:49:36;;;;;;;25.77;13.60;;;;;;;;;;5036498;28;20277;-92
2022/01/23 08:52:05;;;;;;;24.13;13.50;;;;;;;;;;5055159;28;20658;-92
2022/01/23 08:54:32;;;;;;;27.47;12.47;;;;;;;;;;5036431;28;20302;-93
2022/01/23 08:56:59;;;;;;;23.80;12.53;;;;;;;;;;5053283;28;20729;-92
2022/01/23 08:59:28;;;;;;;25.73;12.43;;;;;;;;;;5043806;28;20233;-92
2022/01/23 09:01:55;;;;;;;25.00;12.47;;;;;;;;;;5025149;28;20261;-92
2022/01/23 09:04:23;;;;;;;21.80;12.60;;;;;;;;;;5036758;28;20210;-93
2022/01/23 09:06:50;;;;;;;23.10;13.43;;;;;;;;;;5034768;28;20223;-93
2022/01/23 09:09:19;;;;;;;28.33;14.27;;;;;;;;;;5040508;28;20651;-92
2022/01/23 09:11:57;;;;;;;30.10;17.10;;;;;;;;;;5040463;28;20678;-92
2022/01/23 09:14:25;;;;;;;28.83;14.73;;;;;;;;;;5036974;28;20210;-92
2022/01/23 09:16:54;;;;;;;27.10;13.97;;;;;;;;;;5024019;28;20258;-93
2022/01/23 09:19:23;;;;;;;38.90;16.13;;;;;;;;;;5025689;28;20232;-92
2022/01/23 09:21:51;;;;;;;30.57;15.10;;;;;;;;;;5039428;28;20233;-93
2022/01/23 09:24:19;;;;;;;23.70;13.73;;;;;;;;;;5031474;28;20210;-92
2022/01/23 09:26:52;;;;;;;30.87;13.43;;;;;;;;;;5034349;28;20214;-94
2022/01/23 09:29:28;;;;;;;31.80;13.93;;;;;;;;;;5038433;28;20226;-93
2022/01/23 09:31:57;;;;;;;23.60;13.93;;;;;;;;;;5047494;28;20304;-92
2022/01/23 09:34:26;;;;;;;23.50;12.03;;;;;;;;;;5056021;28;20209;-92
2022/01/23 09:36:54;;;;;;;23.90;12.27;;;;;;;;;;5050241;28;20630;-93
2022/01/23 09:39:22;;;;;;;28.80;12.97;;;;;;;;;;5047757;28;20233;-92
2022/01/23 09:41:51;;;;;;;24.63;11.37;;;;;;;;;;5055721;28;20248;-93
2022/01/23 09:44:20;;;;;;;18.90;10.93;;;;;;;;;;5055315;28;20210;-93
2022/01/23 09:46:48;;;;;;;19.40;11.30;;;;;;;;;;5034892;28;20261;-92
2022/01/23 09:49:19;;;;;;;21.77;11.90;;;;;;;;;;5043976;28;20222;-93
2022/01/23 09:51:49;;;;;;;23.00;11.73;;;;;;;;;;5036153;28;20206;-92
2022/01/23 09:54:17;;;;;;;22.47;11.07;;;;;;;;;;5037394;28;20209;-94
2022/01/23 09:56:45;;;;;;;22.60;12.53;;;;;;;;;;5055344;28;20198;-93
2022/01/23 09:59:12;;;;;;;22.30;12.20;;;;;;;;;;5055332;28;20225;-92
2022/01/23 10:01:40;;;;;;;24.63;12.30;;;;;;;;;;5047183;28;20637;-92
2022/01/23 10:04:08;;;;;;;22.43;11.77;;;;;;;;;;5045827;28;20268;-94
2022/01/23 10:06:37;;;;;;;25.17;12.63;;;;;;;;;;5055295;28;20202;-92
2022/01/23 10:09:07;;;;;;;27.63;13.40;;;;;;;;;;5039688;28;20683;-92
2022/01/23 10:11:38;;;;;;;24.67;13.17;;;;;;;;;;5047071;28;20292;-92
2022/01/23 10:14:06;;;;;;;22.27;12.20;;;;;;;;;;5036484;28;20836;-93
2022/01/23 10:16:34;;;;;;;22.33;12.00;;;;;;;;;;5035357;28;20234;-92
2022/01/23 10:19:03;;;;;;;25.20;12.80;;;;;;;;;;5035243;28;20682;-92
2022/01/23 10:21:33;;;;;;;27.50;14.23;;;;;;;;;;5048520;28;20201;-92
2022/01/23 10:24:02;;;;;;;28.70;14.33;;;;;;;;;;5037171;28;20249;-92
2022/01/23 10:26:38;;;;;;;27.63;13.87;;;;;;;;;;5033548;28;20648;-93
2022/01/23 10:29:12;;;;;;;24.40;13.13;;;;;;;;;;5042286;28;20248;-92
2022/01/23 10:32:01;;;;;;;25.30;13.83;;;;;;;;;;5024673;28;20217;-93
2022/01/23 10:34:41;;;;;;;25.47;14.00;;;;;;;;;;5034573;28;20201;-93
2022/01/23 10:37:09;;;;;;;21.23;12.50;;;;;;;;;;5034671;28;20264;-92
2022/01/23 10:39:45;;;;;;;22.90;12.93;;;;;;;;;;5035055;28;20218;-92
2022/01/23 10:42:46;;;;;;;24.90;12.97;;;;;;;;;;5037126;28;20236;-92
2022/01/23 10:48:00;;;;;;;22.47;12.80;;;;;;;;;;5054190;28;20216;-92
2022/01/23 10:50:28;;;;;;;31.47;13.33;;;;;;;;;;5041324;28;20708;-93
2022/01/23 10:53:00;;;;;;;19.73;11.13;;;;;;;;;;5043008;28;20676;-92
2022/01/23 10:55:30;;;;;;;24.43;12.77;;;;;;;;;;5054422;28;20202;-92
2022/01/23 10:58:01;;;;;;;24.77;12.77;;;;;;;;;;5053877;28;20570;-92
2022/01/23 11:00:31;;;;;;;24.23;12.53;;;;;;;;;;5048922;28;20237;-92
2022/01/23 11:02:59;;;;;;;23.00;11.83;;;;;;;;;;5035379;28;20233;-92
2022/01/23 11:05:33;;;;;;;25.27;13.30;;;;;;;;;;5054273;28;20244;-92
2022/01/23 11:08:01;;;;;;;24.03;12.67;;;;;;;;;;5043987;28;20276;-93
2022/01/23 11:10:30;;;;;;;22.07;12.03;;;;;;;;;;5041247;28;20576;-92
2022/01/23 11:18:34;;;;;;;24.37;13.20;;;;;;;;;;5033637;28;20244;-93
2022/01/23 11:21:13;;;;;;;23.57;12.17;;;;;;;;;;5042669;28;20581;-93
2022/01/23 11:23:41;;;;;;;22.50;12.33;;;;;;;;;;5036522;28;20209;-93
2022/01/23 11:26:11;;;;;;;24.17;13.23;;;;;;;;;;5033310;28;20206;-92
2022/01/23 11:28:43;;;;;;;28.27;13.90;;;;;;;;;;5034243;28;20226;-92
2022/01/23 11:31:11;;;;;;;23.90;13.57;;;;;;;;;;5034449;28;20206;-92
2022/01/23 11:33:39;;;;;;;24.03;12.37;;;;;;;;;;5033907;28;20288;-92
2022/01/23 11:36:07;;;;;;;21.03;11.90;;;;;;;;;;5033076;28;20675;-94
2022/01/23 11:38:37;;;;;;;21.63;12.57;;;;;;;;;;5036703;28;20223;-91
2022/01/23 11:55:29;;;;;;;16.07;10.17;;;;;;;;;;5013628;28;20230;-93
2022/01/23 11:57:56;;;;;;;18.80;10.17;;;;;;;;;;5022318;28;20194;-92
2022/01/23 12:00:27;;;;;;;20.33;11.07;;;;;;;;;;5037740;28;20233;-92
2022/01/23 12:03:09;;;;;;;18.20;10.80;;;;;;;;;;5036265;28;20222;-92
2022/01/23 12:05:38;;;;;;;16.53;10.00;;;;;;;;;;5032294;28;20206;-93
2022/01/23 12:08:32;;;;;;;16.40;9.63;;;;;;;;;;5043543;28;20228;-91
2022/01/23 12:17:12;;;;;;;15.17;9.70;;;;;;;;;;5035935;28;20205;-92
2022/01/23 12:19:44;;;;;;;17.60;9.90;;;;;;;;;;5033134;28;20226;-93
2022/01/23 12:22:25;;;;;;;16.53;8.27;;;;;;;;;;5037223;28;20198;-92
2022/01/23 12:24:57;;;;;;;15.50;9.33;;;;;;;;;;5036919;28;20221;-93
2022/01/23 12:27:26;;;;;;;15.00;8.73;;;;;;;;;;5036576;28;20229;-92
2022/01/23 12:29:55;;;;;;;13.97;8.40;;;;;;;;;;5044997;28;20226;-92
2022/01/23 12:32:26;;;;;;;14.83;8.03;;;;;;;;;;5036824;28;20217;-92
2022/01/23 12:34:55;;;;;;;11.37;7.67;;;;;;;;;;5039398;28;20215;-92
2022/01/23 12:37:22;;;;;;;11.53;6.67;;;;;;;;;;5046150;28;20244;-92
2022/01/23 12:40:04;;;;;;;13.03;7.80;;;;;;;;;;5043198;28;20711;-92
2022/01/23 12:42:46;;;;;;;13.70;7.97;;;;;;;;;;5041535;28;20652;-92
2022/01/23 12:45:28;;;;;;;12.50;7.33;;;;;;;;;;5044275;28;20268;-92
2022/01/23 12:48:10;;;;;;;12.57;8.50;;;;;;;;;;5021796;28;20227;-92
2022/01/23 12:50:46;;;;;;;14.73;8.13;;;;;;;;;;5037252;28;20221;-93
2022/01/23 12:53:13;;;;;;;11.07;6.90;;;;;;;;;;5035571;28;20202;-93
2022/01/23 12:56:01;;;;;;;12.73;7.13;;;;;;;;;;5036285;28;20224;-92
2022/01/23 12:58:31;;;;;;;11.90;7.13;;;;;;;;;;5041250;28;20558;-92
2022/01/23 13:01:00;;;;;;;14.27;7.90;;;;;;;;;;5038156;28;20289;-92
2022/01/23 13:03:27;;;;;;;12.60;6.93;;;;;;;;;;5049625;28;20663;-92
2022/01/23 13:05:56;;;;;;;13.20;7.53;;;;;;;;;;5055722;28;20210;-92
2022/01/23 13:08:28;;;;;;;12.93;7.87;;;;;;;;;;5036410;28;20237;-92
2022/01/23 13:11:23;;;;;;;13.53;8.03;;;;;;;;;;5044172;28;20609;-92
2022/01/23 13:13:59;;;;;;;14.77;8.33;;;;;;;;;;5035423;28;20241;-93
2022/01/23 13:16:35;;;;;;;12.60;7.57;;;;;;;;;;5035286;28;20203;-92
2022/01/23 13:30:32;;;;;;;7.47;4.63;;;;;;;;;;5017981;28;20211;-92
2022/01/23 13:33:03;;;;;;;7.70;5.40;;;;;;;;;;5034189;28;20214;-91
2022/01/23 13:35:36;;;;;;;7.47;4.87;;;;;;;;;;5035684;28;20202;-92
2022/01/23 13:38:10;;;;;;;8.80;4.57;;;;;;;;;;5051468;28;20206;-92
2022/01/23 13:40:40;;;;;;;8.60;5.30;;;;;;;;;;5049001;28;20249;-92
2022/01/23 13:52:01;;;;;;;7.23;4.07;;;;;;;;;;5023340;28;20207;-92
2022/01/23 14:00:03;;;;;;;5.27;3.33;;;;;;;;;;5015090;28;20226;-91
2022/01/23 14:02:32;;;;;;;4.83;3.23;;;;;;;;;;5038051;28;20203;-92
2022/01/23 14:05:06;;;;;;;6.33;3.83;;;;;;;;;;5052611;28;20206;-92
2022/01/23 14:07:34;;;;;;;6.27;4.00;;;;;;;;;;5055382;28;20672;-92
2022/01/23 14:10:11;;;;;;;7.23;4.33;;;;;;;;;;5046142;28;20285;-92
2022/01/23 14:12:38;;;;;;;7.40;4.37;;;;;;;;;;5034382;28;20202;-93
2022/01/23 14:15:10;;;;;;;8.43;4.10;;;;;;;;;;5053651;28;20206;-92
2022/01/23 14:17:39;;;;;;;5.20;3.50;;;;;;;;;;5054978;28;20216;-93
2022/01/23 14:20:08;;;;;;;3.93;3.37;;;;;;;;;;5033050;28;20219;-92
2022/01/23 14:22:38;;;;;;;5.23;2.77;;;;;;;;;;5040948;28;20201;-92
2022/01/23 14:25:11;;;;;;;5.60;2.80;;;;;;;;;;5054761;28;20214;-92
2022/01/23 14:27:39;;;;;;;7.40;4.27;;;;;;;;;;5039792;28;20202;-93
2022/01/23 14:30:08;;;;;;;6.90;4.37;;;;;;;;;;5035140;28;20227;-92
2022/01/23 14:32:42;;;;;;;6.17;3.97;;;;;;;;;;5031856;28;20245;-92
2022/01/23 14:35:12;;;;;;;6.27;3.63;;;;;;;;;;5033907;28;20245;-92
2022/01/23 14:37:39;;;;;;;6.17;4.00;;;;;;;;;;5040807;28;20234;-92
2022/01/23 14:40:12;;;;;;;6.97;4.00;;;;;;;;;;5045936;28;20219;-92
2022/01/23 14:42:40;;;;;;;6.57;4.03;;;;;;;;;;5054356;28;20658;-92
2022/01/23 14:45:07;;;;;;;6.77;4.17;;;;;;;;;;5050050;28;20206;-93
2022/01/23 14:47:39;;;;;;;8.53;5.90;;;;;;;;;;5032888;28;20211;-92
2022/01/23 14:50:10;;;;;;;7.20;4.67;;;;;;;;;;5051047;28;20230;-92
2022/01/23 14:52:38;;;;;;;7.07;4.53;;;;;;;;;;5054570;28;20224;-92
2022/01/23 14:55:05;;;;;;;6.50;4.50;;;;;;;;;;5046312;28;20729;-92
2022/01/23 14:57:35;;;;;;;6.57;4.67;;;;;;;;;;5045503;28;20293;-92
2022/01/23 15:00:02;;;;;;;5.93;4.03;;;;;;;;;;5035704;28;20238;-92
2022/01/23 15:02:30;;;;;;;4.57;3.43;;;;;;;;;;5028674;28;20203;-92
2022/01/23 15:05:02;;;;;;;5.27;3.17;;;;;;;;;;5033516;28;20252;-92
2022/01/23 15:07:34;;;;;;;4.20;2.93;;;;;;;;;;5047956;28;20226;-92
2022/01/23 15:10:01;;;;;;;5.43;3.80;;;;;;;;;;5053696;28;20647;-92
2022/01/23 15:12:28;;;;;;;3.90;2.83;;;;;;;;;;5040786;28;20202;-92
2022/01/23 15:14:57;;;;;;;4.03;2.80;;;;;;;;;;5049769;28;20217;-92
2022/01/23 15:17:26;;;;;;;6.83;3.73;;;;;;;;;;5045915;28;20206;-92
2022/01/23 15:19:53;;;;;;;10.80;7.40;;;;;;;;;;5053912;28;20249;-91
2022/01/23 15:22:29;;;;;;;10.60;6.20;;;;;;;;;;5035351;28;20285;-91
2022/01/23 15:24:56;;;;;;;24.13;12.77;;;;;;;;;;5025495;28;20238;-91
2022/01/23 15:27:24;;;;;;;19.27;11.63;;;;;;;;;;5041230;28;20207;-93
2022/01/23 15:30:10;;;;;;;11.10;7.13;;;;;;;;;;5038280;28;20231;-92
2022/01/23 15:33:08;;;;;;;6.63;4.50;;;;;;;;;;5029683;28;20293;-92
2022/01/23 15:35:43;;;;;;;3.97;2.73;;;;;;;;;;5017650;28;20211;-92
2022/01/23 15:38:11;;;;;;;4.67;2.90;;;;;;;;;;5018168;28;20214;-94
2022/01/23 15:40:38;;;;;;;3.00;2.60;;;;;;;;;;5033759;28;20286;-92
2022/01/23 15:43:06;;;;;;;3.53;2.93;;;;;;;;;;5041547;28;20206;-92
2022/01/23 15:45:42;;;;;;;7.17;4.47;;;;;;;;;;5030466;28;20798;-92
2022/01/23 15:48:09;;;;;;;5.17;3.60;;;;;;;;;;5032984;28;20210;-93
2022/01/23 15:50:38;;;;;;;3.63;3.00;;;;;;;;;;5035860;28;20225;-92
2022/01/23 15:53:07;;;;;;;5.00;3.53;;;;;;;;;;5030587;28;20211;-92
2022/01/23 15:55:34;;;;;;;3.77;2.40;;;;;;;;;;5035948;28;20674;-93
2022/01/23 15:58:02;;;;;;;5.40;4.10;;;;;;;;;;5039382;28;20264;-93
2022/01/23 16:00:31;;;;;;;4.07;3.67;;;;;;;;;;5046184;28;20744;-92
2022/01/23 16:02:59;;;;;;;4.13;3.17;;;;;;;;;;5052191;28;20205;-92
2022/01/23 16:05:26;;;;;;;6.23;3.00;;;;;;;;;;5052698;28;20670;-92
2022/01/23 16:07:55;;;;;;;3.13;2.70;;;;;;;;;;5051580;28;20210;-92
2022/01/23 16:10:22;;;;;;;4.57;2.47;;;;;;;;;;5021913;28;20219;-92
2022/01/23 16:12:50;;;;;;;3.33;2.70;;;;;;;;;;5029468;28;20214;-92
2022/01/23 16:15:17;;;;;;;2.47;2.23;;;;;;;;;;5014005;28;20207;-92
2022/01/23 16:17:53;;;;;;;3.77;2.47;;;;;;;;;;5023718;28;20206;-91
2022/01/23 16:20:21;;;;;;;2.73;2.20;;;;;;;;;;5041131;28;20198;-91
2022/01/23 16:22:49;;;;;;;2.13;1.90;;;;;;;;;;5052577;28;20206;-91
2022/01/23 16:25:18;;;;;;;2.50;2.30;;;;;;;;;;5052300;28;20214;-91
2022/01/23 16:27:45;;;;;;;3.83;2.03;;;;;;;;;;5027839;28;20679;-92
2022/01/23 16:30:13;;;;;;;9.63;4.83;;;;;;;;;;5016302;28;20223;-91
2022/01/23 16:32:42;;;;;;;7.73;4.27;;;;;;;;;;5042604;28;20252;-91
2022/01/23 16:35:12;;;;;;;4.13;3.73;;;;;;;;;;5022556;28;20299;-91
2022/01/23 16:37:39;;;;;;;3.90;3.47;;;;;;;;;;5012275;28;20215;-91
2022/01/23 16:40:07;;;;;;;17.73;9.60;;;;;;;;;;5028841;28;20226;-92
2022/01/23 16:42:36;;;;;;;8.93;5.20;;;;;;;;;;5035505;28;20203;-92
2022/01/23 16:45:03;;;;;;;6.30;3.97;;;;;;;;;;5050493;28;20213;-92
2022/01/23 16:47:31;;;;;;;10.73;7.20;;;;;;;;;;5050093;28;20611;-92
2022/01/23 16:49:58;;;;;;;7.50;5.80;;;;;;;;;;5038578;28;20237;-92
2022/01/23 16:52:25;;;;;;;6.03;5.10;;;;;;;;;;5047842;28;20210;-92
2022/01/23 16:54:52;;;;;;;5.77;4.10;;;;;;;;;;5027367;28;20204;-92
2022/01/23 16:57:20;;;;;;;5.53;4.13;;;;;;;;;;5024848;28;20210;-92
2022/01/23 16:59:49;;;;;;;5.80;4.37;;;;;;;;;;5042410;28;20762;-92
2022/01/23 17:02:16;;;;;;;3.67;3.00;;;;;;;;;;5032981;28;20214;-92
2022/01/23 17:04:44;;;;;;;4.87;3.50;;;;;;;;;;5031491;28;20745;-91
2022/01/23 17:07:14;;;;;;;2.67;2.47;;;;;;;;;;5037129;28;20206;-92
2022/01/23 17:09:42;;;;;;;3.70;2.43;;;;;;;;;;5057622;28;20702;-92
2022/01/23 17:12:11;;;;;;;5.33;2.30;;;;;;;;;;5056235;28;20202;-91
2022/01/23 17:14:38;;;;;;;4.53;2.27;;;;;;;;;;5036140;28;20272;-91
2022/01/23 17:17:07;;;;;;;4.20;3.33;;;;;;;;;;5033453;28;20609;-92
2022/01/23 17:19:34;;;;;;;6.50;2.83;;;;;;;;;;5044038;28;20276;-91
2022/01/23 17:22:01;;;;;;;4.47;2.50;;;;;;;;;;5053691;28;20210;-91
2022/01/23 17:24:29;;;;;;;5.17;3.23;;;;;;;;;;5042035;28;20567;-93
2022/01/23 17:26:56;;;;;;;5.87;3.53;;;;;;;;;;5028850;28;20202;-91
2022/01/23 17:29:23;;;;;;;5.37;3.00;;;;;;;;;;5033405;28;20222;-91
2022/01/23 17:31:51;;;;;;;3.53;2.73;;;;;;;;;;5051367;28;20206;-91
2022/01/23 17:34:20;;;;;;;3.50;2.17;;;;;;;;;;5051339;28;20206;-91